Time;durP1;ratioP1;P1;durP2;ratioP2;P2;SDS_P1;SDS_P2;PMS_P1;PMS_P2;Temp;Humidity;BMP_temperature;BMP_pressure;BME280_temperature;BME280_humidity;BME280_pressure;Samples;Min_cycle;Max_cycle;Signal;HPM_P1;HPM_P2
2022/08/18 00:01:50;;;;;;;14.07;7.78;;;20.20;81.90;;;;;;4972426;28;20476;-68
2022/08/18 00:04:17;;;;;;;16.33;8.10;;;20.30;81.50;;;;;;4973431;28;20051;-68
2022/08/18 00:06:44;;;;;;;13.15;7.18;;;20.20;81.50;;;;;;4973260;28;20275;-68
2022/08/18 00:09:11;;;;;;;13.45;7.63;;;20.30;81.70;;;;;;4955570;28;20051;-68
2022/08/18 00:11:41;;;;;;;12.70;7.47;;;20.30;81.50;;;;;;4955919;28;20062;-68
2022/08/18 00:14:14;;;;;;;10.50;6.90;;;20.30;81.80;;;;;;4973272;28;20134;-68
2022/08/18 00:16:43;;;;;;;14.97;6.80;;;20.30;81.70;;;;;;4973265;28;20131;-68
2022/08/18 00:19:10;;;;;;;10.88;6.70;;;20.30;81.50;;;;;;4955279;28;20290;-68
2022/08/18 00:21:37;;;;;;;12.60;6.30;;;20.20;81.50;;;;;;4973227;28;20051;-68
2022/08/18 00:24:05;;;;;;;13.40;6.90;;;20.20;81.50;;;;;;4971729;28;21082;-68
2022/08/18 00:26:32;;;;;;;13.93;6.60;;;20.30;81.50;;;;;;4972966;28;20051;-68
2022/08/18 00:28:58;;;;;;;13.67;6.90;;;20.20;81.60;;;;;;4955330;28;20054;-68
2022/08/18 00:31:25;;;;;;;10.23;6.53;;;20.30;81.40;;;;;;4955500;28;20271;-68
2022/08/18 00:33:54;;;;;;;12.25;6.30;;;20.30;81.10;;;;;;4955210;28;20048;-68
2022/08/18 00:36:20;;;;;;;10.70;6.25;;;20.30;81.10;;;;;;4955205;28;20589;-68
2022/08/18 00:38:47;;;;;;;9.15;5.43;;;20.30;81.30;;;;;;4955062;28;20049;-68
2022/08/18 00:41:14;;;;;;;12.20;5.60;;;20.30;81.20;;;;;;4972908;28;20501;-68
2022/08/18 00:43:44;;;;;;;9.02;4.90;;;20.30;81.20;;;;;;4972687;28;20351;-68
2022/08/18 00:46:15;;;;;;;10.77;4.90;;;20.30;81.40;;;;;;4971623;28;20078;-68
2022/08/18 00:48:42;;;;;;;9.75;4.68;;;20.30;81.40;;;;;;4955109;28;20053;-68
2022/08/18 00:51:13;;;;;;;10.75;4.57;;;20.20;81.20;;;;;;4972283;28;20603;-68
2022/08/18 00:53:46;;;;;;;9.37;4.93;;;20.30;81.20;;;;;;4954920;28;20529;-68
2022/08/18 00:56:21;;;;;;;8.95;5.03;;;20.30;81.00;;;;;;4955447;28;20634;-68
2022/08/18 00:58:55;;;;;;;8.70;5.35;;;20.20;81.30;;;;;;4972399;28;20509;-68
2022/08/18 01:01:24;;;;;;;10.63;5.88;;;20.20;81.50;;;;;;4972699;28;20110;-68
2022/08/18 01:03:57;;;;;;;13.13;6.03;;;20.10;81.50;;;;;;4972928;28;20062;-68
2022/08/18 01:06:31;;;;;;;11.70;6.20;;;20.10;81.90;;;;;;4954812;28;20135;-68
2022/08/18 01:08:58;;;;;;;10.45;5.40;;;20.10;82.00;;;;;;4954702;28;20299;-68
2022/08/18 01:11:25;;;;;;;10.23;5.65;;;20.10;81.70;;;;;;4970966;28;20043;-68
2022/08/18 01:13:53;;;;;;;9.52;5.18;;;20.10;81.50;;;;;;4954961;28;20055;-68
2022/08/18 01:21:59;;;;;;;10.70;5.07;;;20.10;81.30;;;;;;4972223;28;20343;-68
2022/08/18 01:27:17;;;;;;;11.30;4.80;;;20.10;81.30;;;;;;4972233;28;20048;-68
2022/08/18 01:29:44;;;;;;;11.13;5.30;;;20.10;81.30;;;;;;4971806;28;20159;-68
2022/08/18 01:32:15;;;;;;;8.70;4.47;;;20.10;81.50;;;;;;4954519;28;20051;-68
2022/08/18 01:34:46;;;;;;;9.88;4.88;;;20.10;81.30;;;;;;4972083;28;20713;-68
2022/08/18 01:37:14;;;;;;;9.73;4.97;;;20.10;80.80;;;;;;4971504;28;20047;-68
2022/08/18 01:39:43;;;;;;;11.75;4.80;;;20.10;81.20;;;;;;4954119;28;20051;-68
2022/08/18 01:42:11;;;;;;;11.02;5.20;;;20.10;81.50;;;;;;4955054;28;20055;-68
2022/08/18 01:44:40;;;;;;;11.63;4.90;;;20.10;81.70;;;;;;4972062;28;20171;-68
2022/08/18 01:47:09;;;;;;;9.73;4.88;;;20.00;81.70;;;;;;4954603;28;20263;-68
2022/08/18 01:49:36;;;;;;;11.50;5.55;;;20.00;81.70;;;;;;4970248;28;20065;-68
2022/08/18 01:52:05;;;;;;;11.63;5.18;;;20.00;81.70;;;;;;4954407;28;20055;-68
2022/08/18 01:54:33;;;;;;;14.02;5.40;;;20.00;81.70;;;;;;4971952;28;20062;-68
2022/08/18 01:57:02;;;;;;;11.43;5.27;;;20.00;81.90;;;;;;4938258;28;20052;-68
2022/08/18 01:59:29;;;;;;;11.48;5.90;;;20.00;82.00;;;;;;4971185;28;20283;-68
2022/08/18 02:01:58;;;;;;;11.40;5.35;;;20.00;82.20;;;;;;4953957;28;20062;-68
2022/08/18 02:04:32;;;;;;;13.40;6.88;;;20.00;82.50;;;;;;4954356;28;20048;-68
2022/08/18 02:07:00;;;;;;;17.20;7.43;;;19.90;82.50;;;;;;4971644;28;20062;-68
2022/08/18 02:09:27;;;;;;;16.03;7.80;;;19.90;82.90;;;;;;4953460;28;20811;-68
2022/08/18 02:11:55;;;;;;;14.93;8.68;;;19.90;83.10;;;;;;4971587;28;20260;-68
2022/08/18 02:14:24;;;;;;;18.55;9.70;;;19.90;82.80;;;;;;4970359;28;20174;-68
2022/08/18 02:16:51;;;;;;;19.15;9.93;;;19.90;83.00;;;;;;4954228;28;20051;-68
2022/08/18 02:19:17;;;;;;;16.23;9.30;;;19.90;83.20;;;;;;4973709;28;20055;-68
2022/08/18 02:21:44;;;;;;;20.57;9.70;;;19.90;83.40;;;;;;4957577;28;20557;-68
2022/08/18 02:24:11;;;;;;;18.73;10.15;;;19.90;83.40;;;;;;4957937;28;20407;-68
2022/08/18 02:26:38;;;;;;;19.50;9.13;;;19.80;83.60;;;;;;4974886;28;20521;-68
2022/08/18 02:29:05;;;;;;;18.00;9.27;;;19.80;83.70;;;;;;4973029;28;20134;-68
2022/08/18 02:31:33;;;;;;;17.15;9.32;;;19.80;83.70;;;;;;4957281;28;20055;-68
2022/08/18 02:34:00;;;;;;;18.77;9.60;;;19.80;84.00;;;;;;4974733;28;20500;-68
2022/08/18 02:36:28;;;;;;;16.13;8.75;;;19.70;83.90;;;;;;4974274;28;20279;-68
2022/08/18 02:38:55;;;;;;;18.65;8.02;;;19.70;83.90;;;;;;4973026;28;20053;-68
2022/08/18 02:41:22;;;;;;;16.40;8.55;;;19.70;83.70;;;;;;4973543;28;20055;-68
2022/08/18 02:43:49;;;;;;;16.98;8.07;;;19.70;83.50;;;;;;4956830;28;20098;-68
2022/08/18 02:46:16;;;;;;;16.10;7.67;;;19.80;83.50;;;;;;4957033;28;20055;-68
2022/08/18 02:48:45;;;;;;;16.42;7.35;;;19.80;83.40;;;;;;4956973;28;20387;-68
2022/08/18 02:51:15;;;;;;;13.77;7.70;;;19.90;83.50;;;;;;4974441;28;20055;-68
2022/08/18 02:53:45;;;;;;;16.23;7.53;;;19.90;83.50;;;;;;4957411;28;20134;-68
2022/08/18 02:56:21;;;;;;;13.70;6.90;;;19.90;83.10;;;;;;4972974;28;20055;-68
2022/08/18 02:58:49;;;;;;;15.97;7.07;;;19.90;82.90;;;;;;4972918;28;20052;-68
2022/08/18 03:01:16;;;;;;;11.70;7.05;;;19.90;83.20;;;;;;4956912;28;20258;-68
2022/08/18 03:03:44;;;;;;;12.45;6.85;;;19.90;83.30;;;;;;4957158;28;20965;-68
2022/08/18 03:06:11;;;;;;;11.70;6.28;;;19.90;83.50;;;;;;4974329;28;20063;-68
2022/08/18 03:08:38;;;;;;;12.20;6.40;;;19.80;83.50;;;;;;4974118;28;20053;-68
2022/08/18 03:11:05;;;;;;;13.13;6.77;;;19.80;83.60;;;;;;4956355;28;20432;-68
2022/08/18 03:13:32;;;;;;;11.52;6.75;;;19.70;83.50;;;;;;4972559;28;20331;-68
2022/08/18 03:15:59;;;;;;;12.57;6.47;;;19.70;83.60;;;;;;4956552;28;20583;-68
2022/08/18 03:18:26;;;;;;;12.80;6.40;;;19.70;83.70;;;;;;4956756;28;20051;-68
2022/08/18 03:21:01;;;;;;;13.73;6.07;;;19.70;83.80;;;;;;4956333;28;20058;-68
2022/08/18 03:23:29;;;;;;;15.13;6.33;;;19.70;83.80;;;;;;4956629;28;20062;-68
2022/08/18 03:25:56;;;;;;;12.63;6.75;;;19.70;83.90;;;;;;4974180;28;20251;-68
2022/08/18 03:28:23;;;;;;;11.18;6.07;;;19.60;84.00;;;;;;4973878;28;20067;-68
2022/08/18 03:30:50;;;;;;;11.23;5.70;;;19.50;84.10;;;;;;4972313;28;20082;-68
2022/08/18 03:33:16;;;;;;;14.23;6.75;;;19.50;84.20;;;;;;4973688;28;20059;-68
2022/08/18 03:35:43;;;;;;;16.07;6.57;;;19.50;84.20;;;;;;4956355;28;20050;-68
2022/08/18 03:38:12;;;;;;;13.05;5.78;;;19.50;84.20;;;;;;4973936;28;20333;-68
2022/08/18 03:40:39;;;;;;;13.50;6.57;;;19.50;84.30;;;;;;4956348;28;20051;-68
2022/08/18 03:43:06;;;;;;;13.73;6.43;;;19.50;84.30;;;;;;4956241;28;20126;-68
2022/08/18 03:45:34;;;;;;;13.38;6.93;;;19.50;84.40;;;;;;4956232;28;20477;-68
2022/08/18 03:48:01;;;;;;;12.93;7.10;;;19.50;84.40;;;;;;4973624;28;20043;-68
2022/08/18 03:50:29;;;;;;;14.05;6.95;;;19.50;84.40;;;;;;4973090;28;20821;-68
2022/08/18 03:52:58;;;;;;;13.65;7.32;;;19.50;84.40;;;;;;4972025;28;20126;-68
2022/08/18 03:55:28;;;;;;;13.43;7.55;;;19.50;84.50;;;;;;4972104;28;20074;-68
2022/08/18 03:58:01;;;;;;;14.00;6.93;;;19.40;84.50;;;;;;4973503;28;20063;-68
2022/08/18 04:00:29;;;;;;;13.73;7.10;;;19.40;84.60;;;;;;4973090;28;20168;-68
2022/08/18 04:02:56;;;;;;;16.98;7.65;;;19.40;84.50;;;;;;4955617;28;20797;-68
2022/08/18 04:05:23;;;;;;;16.13;8.38;;;19.40;84.90;;;;;;4955660;28;20051;-68
2022/08/18 04:07:50;;;;;;;13.05;7.40;;;19.40;84.90;;;;;;4973309;28;20055;-68
2022/08/18 04:10:18;;;;;;;17.08;7.82;;;19.40;84.90;;;;;;4955335;28;20047;-68
2022/08/18 04:12:46;;;;;;;14.87;7.73;;;19.40;84.70;;;;;;4971648;28;20090;-68
2022/08/18 04:15:13;;;;;;;14.20;7.72;;;19.40;84.80;;;;;;4973059;28;20283;-68
2022/08/18 04:17:40;;;;;;;18.42;8.23;;;19.40;84.80;;;;;;4955481;28;20052;-68
2022/08/18 04:20:09;;;;;;;15.60;7.53;;;19.40;84.80;;;;;;4955201;28;20071;-68
2022/08/18 04:22:36;;;;;;;12.38;6.78;;;19.40;85.00;;;;;;4971547;28;20146;-68
2022/08/18 04:25:03;;;;;;;17.30;8.07;;;19.30;84.80;;;;;;4973011;28;20075;-68
2022/08/18 04:27:31;;;;;;;13.52;7.43;;;19.40;84.90;;;;;;4972853;28;20380;-68
2022/08/18 04:30:00;;;;;;;13.20;7.00;;;19.30;85.00;;;;;;4955024;28;20055;-68
2022/08/18 04:32:27;;;;;;;13.13;7.03;;;19.30;85.20;;;;;;4955310;28;20047;-68
2022/08/18 04:34:53;;;;;;;15.25;7.22;;;19.30;85.20;;;;;;4971327;28;20130;-68
2022/08/18 04:37:21;;;;;;;17.50;7.53;;;19.20;85.30;;;;;;4955327;28;20065;-68
2022/08/18 04:39:48;;;;;;;12.50;6.78;;;19.20;85.50;;;;;;4955193;28;20754;-68
2022/08/18 04:42:15;;;;;;;12.73;7.43;;;19.20;85.40;;;;;;4938695;28;20047;-68
2022/08/18 04:44:42;;;;;;;15.80;7.35;;;19.20;85.70;;;;;;4955370;28;20058;-68
2022/08/18 04:47:11;;;;;;;14.35;7.32;;;19.20;85.60;;;;;;4972700;28;20530;-68
2022/08/18 04:49:39;;;;;;;14.40;7.13;;;19.20;85.70;;;;;;4955182;28;20075;-68
2022/08/18 04:54:51;;;;;;;15.48;7.63;;;19.20;85.60;;;;;;4955167;28;20051;-68
2022/08/18 04:57:20;;;;;;;14.32;7.55;;;19.20;85.50;;;;;;4971413;28;20473;-68
2022/08/18 04:59:49;;;;;;;14.30;7.47;;;19.20;85.70;;;;;;4972371;28;20051;-68
2022/08/18 05:02:18;;;;;;;14.33;6.97;;;19.20;85.70;;;;;;4963956;28;20086;-68
2022/08/18 05:04:46;;;;;;;12.35;7.10;;;19.20;85.80;;;;;;4962286;28;20267;-68
2022/08/18 05:07:16;;;;;;;12.73;6.93;;;19.20;85.70;;;;;;4950546;28;20051;-68
2022/08/18 05:09:43;;;;;;;12.65;6.72;;;19.20;85.70;;;;;;4962669;28;20060;-68
2022/08/18 05:12:12;;;;;;;14.05;7.43;;;19.20;85.70;;;;;;4961415;28;20059;-68
2022/08/18 05:14:40;;;;;;;13.40;7.47;;;19.20;85.70;;;;;;4962042;28;20051;-68
2022/08/18 05:17:07;;;;;;;15.55;7.55;;;19.20;85.60;;;;;;4945556;28;20279;-68
2022/08/18 05:19:36;;;;;;;14.55;7.45;;;19.20;85.90;;;;;;4961468;28;20166;-68
2022/08/18 05:22:06;;;;;;;13.68;7.57;;;19.20;85.90;;;;;;4961373;28;20138;-68
2022/08/18 05:24:35;;;;;;;14.10;7.35;;;19.20;85.70;;;;;;4945746;28;20195;-68
2022/08/18 05:27:02;;;;;;;14.23;8.10;;;19.20;85.80;;;;;;4962628;28;20071;-68
2022/08/18 05:29:35;;;;;;;14.32;7.90;;;19.20;85.70;;;;;;4959755;28;20343;-68
2022/08/18 05:32:06;;;;;;;14.15;7.72;;;19.20;85.80;;;;;;4944266;28;20062;-68
2022/08/18 05:34:35;;;;;;;15.88;8.00;;;19.20;85.80;;;;;;4943819;28;20746;-68
2022/08/18 05:37:18;;;;;;;17.90;8.20;;;19.20;85.80;;;;;;4943619;28;20059;-68
2022/08/18 05:39:53;;;;;;;13.77;7.97;;;19.20;85.80;;;;;;4962340;28;20054;-68
2022/08/18 05:42:23;;;;;;;11.93;7.38;;;19.10;86.00;;;;;;4957980;28;20286;-68
2022/08/18 05:44:53;;;;;;;12.77;7.32;;;19.20;86.00;;;;;;4952847;28;20068;-68
2022/08/18 05:47:25;;;;;;;12.30;7.55;;;19.20;86.20;;;;;;4951399;28;20510;-68
2022/08/18 05:49:55;;;;;;;14.98;7.70;;;19.10;86.30;;;;;;4934566;28;20171;-68
2022/08/18 05:52:29;;;;;;;14.53;7.90;;;19.10;86.70;;;;;;4952164;28;20178;-68
2022/08/18 05:57:50;;;;;;;16.85;8.18;;;19.10;86.70;;;;;;4954110;28;20047;-67
2022/08/18 06:00:18;;;;;;;13.10;8.00;;;19.10;86.60;;;;;;4955354;28;20183;-67
2022/08/18 06:02:52;;;;;;;14.65;7.78;;;19.10;86.70;;;;;;4971716;28;20055;-67
2022/08/18 06:05:27;;;;;;;13.83;7.33;;;19.10;86.80;;;;;;4972950;28;20505;-67
2022/08/18 06:07:58;;;;;;;11.48;7.10;;;19.10;87.00;;;;;;4971682;28;20275;-67
2022/08/18 06:10:25;;;;;;;15.50;7.40;;;19.10;87.10;;;;;;4970773;28;20499;-68
2022/08/18 06:12:55;;;;;;;14.30;6.60;;;19.10;86.80;;;;;;4972657;28;20054;-67
2022/08/18 06:15:27;;;;;;;12.95;7.40;;;19.10;87.60;;;;;;4945369;28;20051;-68
2022/08/18 06:18:09;;;;;;;11.57;6.57;;;19.10;87.70;;;;;;4946331;28;20051;-69
2022/08/18 06:20:58;;;;;;;9.13;5.75;;;19.10;87.70;;;;;;4965431;28;20261;-68
2022/08/18 06:23:32;;;;;;;11.10;5.95;;;19.20;88.00;;;;;;4964783;28;20569;-68
2022/08/18 06:26:09;;;;;;;12.27;6.18;;;19.20;87.80;;;;;;4955921;28;20052;-68
2022/08/18 06:28:47;;;;;;;8.73;5.55;;;19.30;87.70;;;;;;4957337;28;20075;-68
2022/08/18 06:31:21;;;;;;;8.63;5.07;;;19.30;87.70;;;;;;4963264;28;20086;-68
2022/08/18 06:33:57;;;;;;;9.52;5.20;;;19.30;87.60;;;;;;4947919;28;20256;-67
2022/08/18 06:36:39;;;;;;;10.75;5.72;;;19.30;87.60;;;;;;4954671;28;20055;-67
2022/08/18 06:39:17;;;;;;;10.20;5.68;;;19.30;87.20;;;;;;4947715;28;20925;-67
2022/08/18 06:41:47;;;;;;;11.00;5.72;;;19.30;87.40;;;;;;4946872;28;20056;-67
2022/08/18 06:44:23;;;;;;;9.57;6.13;;;19.30;87.20;;;;;;4944723;28;20066;-67
2022/08/18 06:46:56;;;;;;;7.80;4.82;;;19.30;87.20;;;;;;4964042;28;20259;-67
2022/08/18 06:49:39;;;;;;;13.00;5.50;;;19.40;87.10;;;;;;4962156;28;20054;-68
2022/08/18 06:52:30;;;;;;;11.90;5.82;;;19.40;86.70;;;;;;4963725;28;20477;-68
2022/08/18 06:54:59;;;;;;;9.27;6.10;;;19.40;86.50;;;;;;4946492;28;20616;-68
2022/08/18 06:57:29;;;;;;;11.20;5.93;;;19.50;86.80;;;;;;4953303;28;20058;-67
2022/08/18 07:00:00;;;;;;;11.63;6.70;;;19.50;86.60;;;;;;4966465;28;20286;-67
2022/08/18 07:02:48;;;;;;;12.23;6.22;;;19.50;86.50;;;;;;4968937;28;20055;-67
2022/08/18 07:05:21;;;;;;;9.77;5.30;;;19.50;86.60;;;;;;4964882;28;20066;-67
2022/08/18 07:08:10;;;;;;;9.35;6.22;;;19.50;86.50;;;;;;4955112;28;20541;-67
2022/08/18 07:10:39;;;;;;;9.47;5.60;;;19.50;86.60;;;;;;4954332;28;20047;-67
2022/08/18 07:13:22;;;;;;;9.10;5.95;;;19.50;86.60;;;;;;4956245;28;20326;-68
2022/08/18 07:15:49;;;;;;;9.27;5.40;;;19.50;86.80;;;;;;4947811;28;20055;-67
2022/08/18 07:18:25;;;;;;;9.98;5.05;;;19.50;86.50;;;;;;4963259;28;20086;-67
2022/08/18 07:20:55;;;;;;;7.95;4.90;;;19.60;86.40;;;;;;4946690;28;20083;-68
2022/08/18 07:23:27;;;;;;;7.70;4.60;;;19.60;86.50;;;;;;4964237;28;20146;-67
2022/08/18 07:26:03;;;;;;;10.13;5.15;;;19.60;86.10;;;;;;4958250;28;20709;-67
2022/08/18 07:28:32;;;;;;;9.05;4.70;;;19.60;86.10;;;;;;4953914;28;20150;-67
2022/08/18 07:31:18;;;;;;;7.70;5.68;;;19.70;86.20;;;;;;4952290;28;20050;-67
2022/08/18 07:33:51;;;;;;;9.00;5.00;;;19.70;86.00;;;;;;4936757;28;20508;-67
2022/08/18 07:36:20;;;;;;;8.37;4.80;;;19.70;85.90;;;;;;4936356;28;21103;-67
2022/08/18 07:38:52;;;;;;;7.65;4.68;;;19.70;85.80;;;;;;4954203;28;20735;-67
2022/08/18 07:41:22;;;;;;;8.88;4.65;;;19.70;85.70;;;;;;4953184;28;20772;-67
2022/08/18 07:44:01;;;;;;;7.13;4.65;;;19.70;85.70;;;;;;4950928;28;20145;-67
2022/08/18 07:46:35;;;;;;;7.25;4.53;;;19.70;85.70;;;;;;4972659;28;20055;-67
2022/08/18 07:49:02;;;;;;;9.33;4.07;;;19.70;85.70;;;;;;4968815;28;20520;-67
2022/08/18 07:51:42;;;;;;;7.30;3.65;;;19.70;85.60;;;;;;4968876;28;20415;-67
2022/08/18 07:54:18;;;;;;;7.95;3.85;;;19.80;85.80;;;;;;4969016;28;20067;-67
2022/08/18 07:56:52;;;;;;;7.13;3.72;;;19.80;85.60;;;;;;4939473;28;20059;-68
2022/08/18 07:59:26;;;;;;;6.43;3.47;;;19.80;85.30;;;;;;4960723;28;20051;-68
2022/08/18 08:02:02;;;;;;;6.00;3.40;;;19.80;85.40;;;;;;4971149;28;20051;-68
2022/08/18 08:04:38;;;;;;;7.28;3.80;;;19.90;85.40;;;;;;4969183;28;20274;-67
2022/08/18 08:07:09;;;;;;;6.90;3.38;;;19.90;85.30;;;;;;4953909;28;20051;-68
2022/08/18 08:09:46;;;;;;;6.38;3.70;;;19.90;85.30;;;;;;4952788;28;20130;-67
2022/08/18 08:12:20;;;;;;;7.45;3.58;;;20.00;85.50;;;;;;4953439;28;20216;-68
2022/08/18 08:14:50;;;;;;;6.87;3.70;;;20.00;85.50;;;;;;4955140;28;20199;-68
2022/08/18 08:17:31;;;;;;;6.22;3.45;;;20.00;85.40;;;;;;4970497;28;20268;-68
2022/08/18 08:20:16;;;;;;;5.93;3.20;;;20.00;85.40;;;;;;4949118;28;20060;-68
2022/08/18 08:22:57;;;;;;;3.85;1.52;;;20.00;85.20;;;;;;4966292;28;20161;-67
2022/08/18 08:25:29;;;;;;;2.80;1.00;;;20.00;85.30;;;;;;4968837;28;20074;-68
2022/08/18 08:28:08;;;;;;;2.93;1.20;;;20.00;85.10;;;;;;4970834;28;20146;-67
2022/08/18 08:30:45;;;;;;;2.83;1.40;;;20.00;85.00;;;;;;4968427;28;21131;-67
2022/08/18 08:33:22;;;;;;;4.68;1.17;;;20.10;85.00;;;;;;4970016;28;20406;-67
2022/08/18 08:35:55;;;;;;;5.72;1.48;;;20.10;85.00;;;;;;4954680;28;20047;-67
2022/08/18 08:38:27;;;;;;;4.18;2.00;;;20.10;84.90;;;;;;4972742;28;20079;-68
2022/08/18 08:41:02;;;;;;;7.03;2.37;;;20.10;84.80;;;;;;4952360;28;20492;-68
2022/08/18 08:43:33;;;;;;;6.28;2.75;;;20.10;84.70;;;;;;4972439;28;20278;-68
2022/08/18 08:46:07;;;;;;;6.90;2.92;;;20.20;84.70;;;;;;4955014;28;20055;-68
2022/08/18 08:48:40;;;;;;;6.57;2.75;;;20.20;84.70;;;;;;4952712;28;20047;-68
2022/08/18 08:51:19;;;;;;;7.15;2.53;;;20.20;84.70;;;;;;4972136;28;20057;-68
2022/08/18 08:53:50;;;;;;;8.03;3.03;;;20.30;84.70;;;;;;4972223;28;20194;-68
2022/08/18 08:56:22;;;;;;;5.55;2.80;;;20.30;84.80;;;;;;4953113;28;20252;-68
2022/08/18 08:58:55;;;;;;;6.15;3.00;;;20.30;84.80;;;;;;4954378;28;20126;-68
2022/08/18 09:01:30;;;;;;;6.90;2.83;;;20.30;84.70;;;;;;4972059;28;20377;-68
2022/08/18 09:04:03;;;;;;;6.10;3.05;;;20.30;84.70;;;;;;4951476;28;20134;-67
2022/08/18 09:06:40;;;;;;;6.90;2.90;;;20.40;84.60;;;;;;4976366;28;20054;-67
2022/08/18 09:09:21;;;;;;;9.10;3.45;;;20.40;84.40;;;;;;4971281;28;20323;-67
2022/08/18 09:12:10;;;;;;;8.68;3.38;;;20.40;84.40;;;;;;4969270;28;20055;-68
2022/08/18 09:15:07;;;;;;;6.47;3.15;;;20.50;84.70;;;;;;4964179;28;20123;-68
2022/08/18 09:18:03;;;;;;;6.70;2.63;;;20.50;84.70;;;;;;4968167;28;20134;-68
2022/08/18 09:20:50;;;;;;;8.03;3.20;;;20.50;84.70;;;;;;4948941;28;20051;-68
2022/08/18 09:23:21;;;;;;;6.30;3.10;;;20.50;84.60;;;;;;4968544;28;20613;-68
2022/08/18 09:25:50;;;;;;;6.88;3.20;;;20.50;84.80;;;;;;4968887;28;20132;-68
2022/08/18 09:28:23;;;;;;;5.30;2.97;;;20.50;85.00;;;;;;4936954;28;20040;-68
2022/08/18 09:31:16;;;;;;;7.72;2.90;;;20.60;84.90;;;;;;4936825;28;20051;-68
2022/08/18 09:34:01;;;;;;;7.80;2.93;;;20.60;84.70;;;;;;4971683;28;20055;-68
2022/08/18 09:36:39;;;;;;;6.20;2.65;;;20.60;84.70;;;;;;4954162;28;20271;-68
2022/08/18 09:42:13;;;;;;;5.72;2.80;;;20.70;84.90;;;;;;4970828;28;20048;-68
2022/08/18 09:45:06;;;;;;;6.90;2.92;;;20.80;84.70;;;;;;4953792;28;20056;-68
2022/08/18 09:48:21;;;;;;;5.60;2.30;;;20.80;84.30;;;;;;4971861;28;20488;-68
2022/08/18 09:50:55;;;;;;;6.07;2.25;;;20.90;84.30;;;;;;4968962;28;20259;-68
2022/08/18 09:53:36;;;;;;;5.00;2.03;;;20.90;84.00;;;;;;4968395;28;20509;-68
2022/08/18 09:56:05;;;;;;;4.45;2.22;;;20.90;82.80;;;;;;4951865;28;20114;-68
2022/08/18 09:58:52;;;;;;;5.45;2.15;;;20.90;82.60;;;;;;4953332;28;20052;-68
2022/08/18 10:01:32;;;;;;;4.73;1.97;;;20.90;82.40;;;;;;4958890;28;20519;-67
2022/08/18 10:04:47;;;;;;;4.65;2.30;;;21.00;82.70;;;;;;4960154;28;20271;-68
2022/08/18 10:07:30;;;;;;;4.05;1.90;;;21.00;82.70;;;;;;4963213;28;20106;-67
2022/08/18 10:10:14;;;;;;;4.97;2.10;;;21.00;83.20;;;;;;4964169;28;20075;-68
2022/08/18 10:13:00;;;;;;;4.97;2.33;;;21.10;83.40;;;;;;4963700;28;20138;-68
2022/08/18 10:15:42;;;;;;;6.20;2.40;;;21.10;83.60;;;;;;4944438;28;21924;-68
2022/08/18 10:18:23;;;;;;;5.68;2.42;;;21.10;83.60;;;;;;4970823;28;20255;-68
2022/08/18 10:21:00;;;;;;;5.95;2.55;;;21.30;83.60;;;;;;4970406;28;20055;-68
2022/08/18 10:23:48;;;;;;;5.28;2.65;;;21.30;83.60;;;;;;4953634;28;20602;-68
2022/08/18 10:27:07;;;;;;;4.88;2.17;;;21.40;83.00;;;;;;4971358;28;20065;-68
2022/08/18 10:29:50;;;;;;;4.67;1.77;;;21.40;82.90;;;;;;4950915;28;20055;-68
2022/08/18 10:32:23;;;;;;;4.10;1.63;;;21.50;82.40;;;;;;4969008;28;20275;-68
2022/08/18 10:34:54;;;;;;;3.97;2.00;;;21.50;82.10;;;;;;4953348;28;20047;-68
2022/08/18 10:37:23;;;;;;;4.90;1.73;;;21.50;81.80;;;;;;4900697;28;20113;-68
2022/08/18 10:39:53;;;;;;;3.08;1.50;;;21.50;81.20;;;;;;4990989;28;20099;-68
2022/08/18 10:42:24;;;;;;;4.67;1.80;;;21.60;81.00;;;;;;4997254;28;20051;-68
2022/08/18 10:44:58;;;;;;;3.85;1.63;;;21.60;80.20;;;;;;4986740;28;20337;-68
2022/08/18 10:47:28;;;;;;;6.35;2.17;;;21.60;79.60;;;;;;5001538;28;20062;-68
2022/08/18 10:49:59;;;;;;;5.13;2.05;;;21.70;79.80;;;;;;4971811;28;20046;-67
2022/08/18 10:52:51;;;;;;;4.50;2.00;;;21.70;79.80;;;;;;4992674;28;20176;-67
2022/08/18 10:55:41;;;;;;;6.60;1.90;;;21.70;79.80;;;;;;4992538;28;20105;-68
2022/08/18 10:58:21;;;;;;;6.40;1.88;;;21.70;79.70;;;;;;4992358;28;20251;-68
2022/08/18 11:01:03;;;;;;;4.63;1.98;;;21.70;79.80;;;;;;4972405;28;20094;-67
2022/08/18 11:04:06;;;;;;;4.72;2.05;;;21.80;79.60;;;;;;5001092;28;20062;-68
2022/08/18 11:06:41;;;;;;;4.72;2.05;;;21.90;79.30;;;;;;4990523;28;20054;-67
2022/08/18 11:09:10;;;;;;;4.30;1.70;;;21.90;79.20;;;;;;4962651;28;20051;-68
2022/08/18 11:11:41;;;;;;;3.05;1.60;;;21.90;79.10;;;;;;4979838;28;20263;-68
2022/08/18 11:14:26;;;;;;;4.05;1.80;;;21.90;79.10;;;;;;4979344;28;20047;-67
2022/08/18 11:17:03;;;;;;;4.95;1.95;;;21.90;79.00;;;;;;4971769;28;20506;-67
2022/08/18 11:19:37;;;;;;;3.20;1.70;;;21.90;79.00;;;;;;4966990;28;20086;-67
2022/08/18 11:22:05;;;;;;;4.73;1.97;;;21.90;79.00;;;;;;4966799;28;20135;-67
2022/08/18 11:24:34;;;;;;;5.07;2.30;;;22.00;79.00;;;;;;4982351;28;20291;-68
2022/08/18 11:27:03;;;;;;;4.22;1.70;;;22.00;78.90;;;;;;4965702;28;20585;-67
2022/08/18 11:29:33;;;;;;;4.32;2.05;;;22.00;78.60;;;;;;4966486;28;20145;-67
2022/08/18 11:32:05;;;;;;;4.55;2.13;;;22.10;78.60;;;;;;4968999;28;20051;-67
2022/08/18 11:34:37;;;;;;;4.03;2.00;;;22.10;78.70;;;;;;4972098;28;20054;-67
2022/08/18 11:37:10;;;;;;;4.28;2.10;;;22.20;78.80;;;;;;4989016;28;20342;-67
2022/08/18 11:39:49;;;;;;;5.65;2.40;;;22.20;78.70;;;;;;4970439;28;20050;-68
2022/08/18 11:42:17;;;;;;;5.43;2.13;;;22.20;78.10;;;;;;4958463;28;20051;-67
2022/08/18 11:44:45;;;;;;;5.57;2.00;;;22.30;77.90;;;;;;4959952;28;21880;-67
2022/08/18 11:47:16;;;;;;;4.67;2.43;;;22.30;77.80;;;;;;4980901;28;20105;-68
2022/08/18 11:49:55;;;;;;;4.43;2.10;;;22.30;77.90;;;;;;4968404;28;20706;-68
2022/08/18 11:52:27;;;;;;;5.90;2.13;;;22.30;77.90;;;;;;4973061;28;20576;-68
2022/08/18 11:55:00;;;;;;;4.40;2.30;;;22.40;77.50;;;;;;4991190;28;20134;-67
2022/08/18 11:57:49;;;;;;;4.78;2.17;;;22.50;77.10;;;;;;4991941;28;20081;-68
2022/08/18 12:00:51;;;;;;;3.63;1.40;;;22.50;76.70;;;;;;4975101;28;20126;-68
2022/08/18 12:03:26;;;;;;;3.83;1.52;;;22.50;76.30;;;;;;4963738;28;20379;-68
2022/08/18 12:05:56;;;;;;;5.15;1.90;;;22.50;76.20;;;;;;4973722;28;20071;-68
2022/08/18 12:08:32;;;;;;;4.60;1.75;;;22.60;76.10;;;;;;4991260;28;20055;-68
2022/08/18 12:11:19;;;;;;;4.07;1.60;;;22.60;75.80;;;;;;4990774;28;20058;-68
2022/08/18 12:13:56;;;;;;;4.70;1.80;;;22.70;75.80;;;;;;4991329;28;20610;-68
2022/08/18 12:16:34;;;;;;;5.13;2.10;;;22.70;75.60;;;;;;4974004;28;20306;-68
2022/08/18 12:19:01;;;;;;;4.97;2.10;;;22.70;74.70;;;;;;4974863;28;20053;-68
2022/08/18 12:21:28;;;;;;;3.80;1.70;;;22.80;75.00;;;;;;4974941;28;20125;-68
2022/08/18 12:23:56;;;;;;;3.33;1.60;;;22.80;75.10;;;;;;4991886;28;20113;-68
2022/08/18 12:26:23;;;;;;;5.33;2.23;;;22.90;75.10;;;;;;4974597;28;20053;-68
2022/08/18 12:28:50;;;;;;;5.80;2.10;;;22.90;75.20;;;;;;4975132;28;20277;-68
2022/08/18 12:31:17;;;;;;;5.65;2.00;;;22.90;75.00;;;;;;4974813;28;20054;-68
2022/08/18 12:33:44;;;;;;;4.40;1.90;;;23.00;74.80;;;;;;4973803;28;20042;-68
2022/08/18 12:36:11;;;;;;;4.55;2.00;;;23.00;74.50;;;;;;4992162;28;20055;-68
2022/08/18 12:38:40;;;;;;;4.17;1.90;;;23.00;74.40;;;;;;4974466;28;20079;-68
2022/08/18 12:41:10;;;;;;;3.95;1.77;;;23.10;74.30;;;;;;4991620;28;20263;-70
2022/08/18 12:43:38;;;;;;;4.35;1.77;;;23.10;74.10;;;;;;4991590;28;20073;-70
2022/08/18 12:46:06;;;;;;;4.13;1.80;;;23.10;73.80;;;;;;4972078;28;20062;-68
2022/08/18 12:48:33;;;;;;;4.15;1.95;;;23.10;73.40;;;;;;4990523;28;20046;-68
2022/08/18 12:51:00;;;;;;;6.13;1.83;;;23.10;73.60;;;;;;4988922;28;20046;-68
2022/08/18 12:53:27;;;;;;;5.05;1.90;;;23.20;73.40;;;;;;4990576;28;20270;-68
2022/08/18 12:55:54;;;;;;;4.43;1.98;;;23.20;73.50;;;;;;4990565;28;20133;-68
2022/08/18 12:58:22;;;;;;;4.53;1.90;;;23.20;73.60;;;;;;4990345;28;20137;-68
2022/08/18 13:00:49;;;;;;;4.65;2.30;;;23.20;73.10;;;;;;4987028;28;20050;-68
2022/08/18 13:03:17;;;;;;;3.93;2.03;;;23.30;73.40;;;;;;4993698;28;20497;-68
2022/08/18 13:05:45;;;;;;;5.53;1.95;;;23.30;73.50;;;;;;4994019;28;21249;-68
2022/08/18 13:08:17;;;;;;;4.43;1.63;;;23.40;73.80;;;;;;4994036;28;20051;-68
2022/08/18 13:10:44;;;;;;;4.57;2.20;;;23.40;73.50;;;;;;4993737;28;20051;-68
2022/08/18 13:13:11;;;;;;;4.72;1.80;;;23.50;73.20;;;;;;4993951;28;20054;-68
2022/08/18 13:15:40;;;;;;;4.80;2.00;;;23.60;73.20;;;;;;5011692;28;20145;-68
2022/08/18 13:18:07;;;;;;;4.07;2.00;;;23.60;72.70;;;;;;4993735;28;20266;-68
2022/08/18 13:20:35;;;;;;;5.28;2.08;;;23.60;72.80;;;;;;4993523;28;20060;-68
2022/08/18 13:23:02;;;;;;;4.28;2.10;;;23.70;72.90;;;;;;4993457;28;20654;-68
2022/08/18 13:25:28;;;;;;;4.07;1.92;;;23.80;72.50;;;;;;4993207;28;20042;-68
2022/08/18 13:27:56;;;;;;;4.13;2.20;;;23.90;72.00;;;;;;4995043;28;20062;-68